• Join FlightAware (Why Join?)
  • Login
  • US Flag 
Rudolph Flight #1: Arrived! 
03:19PM EST


 

Airport Tracker/Info


-or-


 

Live Flight TrackerFlight Track Log ✈ AAY883 ✈ 28-Apr-2014 ✈ KGRR - KPIE

Flight Track Log - Related Links

Times and Time Zones

All times are in EDT time to prevent confusion due to time zone crossing. See the AAY883 flight status page for this flight to view local times or setup timezone preferences in your user account.

Time Position Orientation Groundspeed Altitude Reporting Facility
EDT Latitude Longitude Course Direction KTS MPH feet Rate Location/Type
06:13PM 42.8833 -85.4850 180° South 168 193 31,000  Level Chicago Center
06:14PM 42.8439 -85.4467 145° Southeast 238 274 5,400 -11,400 Descending Chicago Center
06:15PM 42.7756 -85.4644 191° South 245 282 7,700 2,160 Climbing Chicago Center
06:17PM 42.7031 -85.4806 189° South 260 299 9,900 1,440 Climbing Chicago Center
06:18PM 42.6319 -85.5269 206° Southwest 277 319 10,800 1,140 Climbing Chicago Center
06:19PM 42.3433 -85.3994 180° South  Level Estimated
06:19PM 42.5469 -85.5844 206° Southwest 335 386 12,300  Level Chicago Center
06:20PM 42.4244 -85.6031 186° South 376 433 15,500 2,700 Climbing Chicago Center
06:21PM 42.3208 -85.5711 167° South 381 438 17,900 2,220 Climbing Chicago Center
06:22PM 42.2139 -85.5411 168° South 391 450 20,200 2,340 Climbing Chicago Center
06:23PM 42.1069 -85.5092 168° South 393 452 22,800 1,620 Climbing Chicago Center
06:24PM 41.9875 -85.4750 168° South 394 453 23,600 1,080 Climbing Chicago Center
06:25PM 41.8733 -85.4425 168° South 413 475 25,100 1,440 Climbing Chicago Center
06:26PM 41.7625 -85.4100 168° South 411 473 26,600 1,320 Climbing Chicago Center
06:27PM 41.6408 -85.3747 168° South 410 472 27,900 1,260 Climbing Chicago Center
06:28PM 41.5308 -85.3425 168° South 409 471 29,300 1,320 Climbing Chicago Center
06:29PM 41.4242 -85.3117 168° South 398 458 30,700 780 Climbing Chicago Center
06:30PM 41.3206 -85.2814 168° South 387 445 31,000 120 Climbing Chicago Center
06:31PM 41.1967 -85.2464 168° South 381 438 31,000  Level Chicago Center
06:32PM 41.0917 -85.2156 168° South 382 440 31,000  Level Chicago Center
06:33PM 40.9867 -85.1872 168° South 384 442 31,000  Level Chicago Center
06:34PM 40.8817 -85.1786 176° South 379 436 31,000 360 Level Chicago Center
06:35PM 40.7756 -85.1736 178° South 379 436 31,800 840 Climbing Chicago Center
06:36PM 40.6717 -85.1692 178° South 378 435 32,800 540 Climbing Chicago Center
06:37PM 40.5553 -85.1650 178° South 373 429 33,000 60 Climbing Chicago Center
06:38PM 40.4500 -85.1592 178° South 374 430 33,000  Level Chicago Center
06:39PM 40.3664 -85.1561 178° South 375 432 33,000  Level Indianapolis Center
06:40PM 40.2603 -85.1511 178° South 376 433 33,000  Level Indianapolis Center
06:41PM 40.1550 -85.1453 178° South 376 433 33,000  Level Indianapolis Center
06:42PM 40.0489 -85.1403 178° South 377 434 33,000  Level Indianapolis Center
06:43PM 39.9428 -85.1350 178° South 377 434 33,000  Level Indianapolis Center
06:44PM 39.8147 -85.1286 178° South 378 435 33,000  Level Indianapolis Center
06:45PM 39.7086 -85.1236 178° South 379 436 33,000  Level Indianapolis Center
06:46PM 39.6022 -85.1181 178° South 379 436 33,000  Level Indianapolis Center
06:47PM 39.4978 -85.1136 178° South 379 436 33,000  Level Indianapolis Center
06:48PM 39.3922 -85.1094 178° South 379 436 33,000  Level Indianapolis Center
06:49PM 39.2881 -85.1031 177° South 378 435 33,000  Level Indianapolis Center
06:50PM 39.1847 -85.0983 178° South 375 432 33,000  Level Indianapolis Center
06:51PM 39.0594 -85.0914 178° South 375 432 33,000  Level Indianapolis Center
06:52PM 38.9547 -85.0872 178° South 375 432 33,000  Level Indianapolis Center
06:53PM 38.8494 -85.0831 178° South 375 432 33,000  Level Indianapolis Center
06:54PM 38.7431 -85.0769 177° South 377 434 33,000  Level Indianapolis Center
06:55PM 38.6258 -85.0717 178° South 382 440 33,000  Level Indianapolis Center
06:57PM 38.5181 -85.0675 178° South 385 443 33,000  Level Indianapolis Center
06:58PM 38.4094 -85.0617 178° South 386 444 33,000  Level Indianapolis Center
06:59PM 38.3000 -85.0578 178° South 387 445 33,000  Level Indianapolis Center
07:00PM 38.1919 -85.0522 178° South 388 447 33,000  Level Indianapolis Center
07:01PM 38.0836 -85.0483 178° South 388 447 33,000  Level Indianapolis Center
07:02PM 37.9561 -85.0411 177° South 389 448 33,000  Level Indianapolis Center
07:03PM 37.8461 -85.0375 179° South 390 449 33,000  Level Indianapolis Center
07:04PM 37.7381 -85.0311 177° South 390 449 33,000  Level Indianapolis Center
07:05PM 37.6294 -85.0275 178° South 390 449 33,000  Level Indianapolis Center
07:06PM 37.5208 -85.0225 178° South 390 449 33,000  Level Indianapolis Center
07:07PM 37.4119 -85.0181 178° South 390 449 33,000  Level Indianapolis Center
07:08PM 37.3019 -85.0019 173° South 393 452 33,000  Level Indianapolis Center
07:09PM 37.1703 -84.9808 173° South 405 466 33,000  Level Indianapolis Center
07:10PM 37.0561 -84.9644 173° South 407 468 33,000  Level Indianapolis Center
07:11PM 36.9522 -84.9467 172° South 409 471 33,000  Level Indianapolis Center
07:12PM 36.8378 -84.9289 173° South 410 472 33,000  Level Indianapolis Center
07:13PM 36.6997 -84.9072 173° South 411 473 33,000  Level Indianapolis Center
07:14PM 36.5847 -84.8875 172° South 412 474 33,000  Level Indianapolis Center
07:15PM 36.4708 -84.8700 173° South 412 474 33,000  Level Indianapolis Center
07:16PM 36.3564 -84.8514 173° South 412 474 33,000  Level Indianapolis Center
07:17PM 36.2419 -84.8333 173° South 412 474 33,000  Level Indianapolis Center
07:18PM 36.1269 -84.8153 173° South 412 474 33,000  Level Indianapolis Center
07:19PM 36.0114 -84.7967 173° South 413 475 33,000  Level Indianapolis Center
07:20PM 35.8933 -84.7775 173° South 413 475 33,000  Level Indianapolis Center
07:21PM 35.7733 -84.7600 173° South 418 481 33,000  Level Indianapolis Center
07:22PM 35.6564 -84.7425 173° South 418 481 33,000  Level Indianapolis Center
07:23PM 35.5411 -84.7253 173° South 417 480 33,000  Level Indianapolis Center
07:24PM 35.3994 -84.7036 173° South 425 489 33,000  Level Atlanta Center
07:25PM 35.2847 -84.6875 173° South 425 489 33,000  Level Atlanta Center
07:26PM 35.1681 -84.6689 173° South 425 489 33,000  Level Atlanta Center
07:27PM 35.0511 -84.6528 174° South 425 489 33,000  Level Atlanta Center
07:28PM 34.9386 -84.6342 172° South 425 489 33,000  Level Atlanta Center
07:29PM 34.8239 -84.6156 172° South 425 489 33,000  Level Atlanta Center
07:30PM 34.7072 -84.5997 174° South 425 489 33,000  Level Atlanta Center
07:31PM 34.5800 -84.5786 172° South 425 489 33,000  Level Atlanta Center
07:32PM 34.4653 -84.5603 172° South 425 489 33,000  Level Atlanta Center
07:33PM 34.3483 -84.5394 172° South 425 489 33,000  Level Atlanta Center
07:34PM 34.2381 -84.4761 155° Southeast 425 489 33,000  Level Atlanta Center
07:35PM 34.1444 -84.4003 146° Southeast 437 503 33,000  Level Atlanta Center
07:36PM 34.0361 -84.3247 150° Southeast 446 513 33,000  Level Atlanta Center
07:37PM 33.9339 -84.2442 147° Southeast 451 519 33,000  Level Atlanta Center
07:38PM 33.8131 -84.1589 150° Southeast 454 522 33,000  Level Atlanta Center
07:39PM 33.7067 -84.0889 151° Southeast 447 514 33,000  Level Atlanta Center
07:40PM 33.5981 -84.0139 150° Southeast 442 509 33,000  Level Atlanta Center
07:41PM 33.4917 -83.9417 150° Southeast 442 509 33,000  Level Atlanta Center
07:42PM 33.3789 -83.8797 155° Southeast 437 503 33,000  Level Atlanta Center
07:43PM 33.2639 -83.8300 160° South 437 503 33,000  Level Atlanta Center
07:44PM 33.1428 -83.7981 168° South 442 509 33,000  Level Atlanta Center
07:45PM 33.0258 -83.7836 174° South 433 498 33,000  Level Atlanta Center
07:46PM 32.9069 -83.7567 169° South 433 498 33,000  Level Atlanta Center
07:47PM 32.7878 -83.7200 165° South 433 498 33,000  Level Atlanta Center
07:48PM 32.6667 -83.7206 180° South 438 504 33,000  Level Atlanta Center
07:49PM 32.5436 -83.7283 183° South 438 504 33,000  Level Atlanta Center
07:50PM 32.4203 -83.7361 183° South 438 504 33,000  Level Atlanta Center
07:52PM 32.2011 -83.7494 183° South 440 506 33,000  Level Jacksonville Center
07:53PM 32.0800 -83.7556 182° South 440 506 33,000 -360 Level Jacksonville Center
07:54PM 31.9569 -83.7642 183° South 440 506 32,300 -960 Descending Jacksonville Center
07:55PM 31.8231 -83.7678 181° South 440 506 31,100 -720 Descending Jacksonville Center
07:56PM 31.7019 -83.7767 184° South 447 514 30,900 -60 Descending Jacksonville Center
07:57PM 31.5703 -83.7900 185° South 452 520 31,000  Climbing Jacksonville Center
07:58PM 31.4492 -83.7961 182° South 452 520 31,000  Level Jacksonville Center
07:59PM 31.3261 -83.8022 182° South 447 514 31,000  Level Jacksonville Center
08:00PM 31.2006 -83.8106 183° South 447 514 31,000  Level Jacksonville Center
08:01PM 31.0775 -83.8167 182° South 447 514 31,000  Level Jacksonville Center
08:02PM 30.9522 -83.8253 183° South 442 509 31,000  Level Jacksonville Center
08:03PM 30.8289 -83.8311 182° South 447 514 31,000  Level Jacksonville Center
08:04PM 30.7056 -83.8397 183° South 447 514 31,000  Level Jacksonville Center
08:05PM 30.5825 -83.8481 183° South 447 514 31,000 -60 Level Jacksonville Center
08:06PM 30.4592 -83.8542 182° South 438 504 30,900 -60 Descending Jacksonville Center
08:07PM 30.3361 -83.8361 173° South 444 511 30,900  Level Jacksonville Center
08:08PM 30.2111 -83.7989 166° South 444 511 30,900  Level Jacksonville Center
08:09PM 30.0861 -83.7639 166° South 455 524 30,900  Level Jacksonville Center
08:10PM 29.9631 -83.7244 164° South 455 524 30,900  Level Jacksonville Center
08:11PM 29.8361 -83.6900 167° South 461 531 30,900  Level Jacksonville Center
08:12PM 29.7131 -83.6553 166° South 461 531 30,900  Level Jacksonville Center
08:13PM 29.5858 -83.6186 166° South 467 537 30,900 -360 Level Jacksonville Center
08:14PM 29.4631 -83.5794 164° South 467 537 30,200 -1,080 Descending Jacksonville Center
08:15PM 29.3442 -83.5453 166° South 462 532 28,800 -1,260 Descending Jacksonville Center
08:16PM 29.2253 -83.5089 165° South 450 518 27,700 -1,080 Descending Jacksonville Center
08:17PM 29.1131 -83.4392 152° Southeast 445 512 26,700 -1,020 Descending Jacksonville Center
08:18PM 29.0047 -83.3722 152° Southeast 445 512 25,700 -1,020 Descending Jacksonville Center
08:19PM 28.8944 -83.3006 150° Southeast 445 512 24,700 -2,520 Descending Jacksonville Center
08:22PM 28.6500 -83.1500 152° Southeast 440 506 17,400 -2,880 Descending Tampa TRACON
08:22PM 28.5667 -83.0833 145° Southeast 405 466 15,500 -1,860 Descending Tampa TRACON
08:23PM 28.4667 -83.0333 156° South 360 414 13,900 -1,740 Descending Tampa TRACON
08:24PM 28.3833 -82.9667 145° Southeast 339 390 12,100 -1,500 Descending Tampa TRACON
08:25PM 28.3167 -82.9167 147° Southeast 291 335 11,000 -1,500 Descending Tampa TRACON
08:27PM 28.2500 -82.8667 147° Southeast 256 295 9,000 -2,100 Descending Tampa TRACON
08:28PM 28.1833 -82.8333 156° South 254 292 6,600 -2,160 Descending Tampa TRACON
08:28PM 28.1333 -82.8000 150° Southeast 250 288 4,900 -1,440 Descending Tampa TRACON
08:29PM 28.0833 -82.7667 150° Southeast 184 212 3,900 -1,200 Descending Tampa TRACON
08:30PM 28.0500 -82.7333 139° Southeast 167 192 2,700 -1,260 Descending Tampa TRACON
08:31PM 28.0167 -82.7000 139° Southeast 168 193 1,600 -960 Descending Tampa TRACON
08:32PM 27.9667 -82.7000 180° South 127 146 800 -780 Descending Tampa TRACON